Gas Snapper — V7TZ3 — position and weather

sailwx.info

Track history (hours):
 
Tides and Currents Weather Stations Pressure Air Temp Water Temp Dewpoint Dewpoint Depression Visibility Wind Speed Wind Dir Waves Ship Positions

Gas Snapper

Last reported at 2015-May-04 04:33 UTC. Time now 2015-May-04 06:01 UTC.
Position N 36°40' E 013°14'.

Length 174 m; draft 6.6 m.

Type: Ship (hazmat cat D). MMSI: 538003911.

Date/timePositionNaut miles runAvg speedWind from/ knotsBaromVisibWave heightAir tempDewpointWater temp
2015-May-04 04:33N 36°40' E 013°14'1414.1
2015-May-04 03:34N 36°45' E 012°58'1414.1
2015-May-04 02:33N 36°50' E 012°41'1414.1
2015-May-04 01:33N 36°54' E 012°25'1414.4
2015-May-04 00:33N 36°59' E 012°08'1514.6
2015-May-03 23:33N 37°05' E 011°51'1514.7
2015-May-03 22:33N 37°12' E 011°35'1514.5
2015-May-03 21:33N 37°19' E 011°19'1514.3
2015-May-03 20:31N 37°25' E 011°02'1414.3
2015-May-03 19:33N 37°29' E 010°45'1414.4
2015-May-03 18:33N 37°33' E 010°28'1414.5
2015-May-03 17:33N 37°34' E 010°09'1514.9
2015-May-03 16:33N 37°35' E 009°51'4514.8
2015-May-03 13:32N 37°38' E 008°54'19214.4
2015-May-03 00:13N 37°14' E 004°54'5414.6
2015-May-02 20:33N 37°05' E 003°48'1514.9
2015-May-02 19:33N 37°04' E 003°30'1515.1
2015-May-02 18:34N 37°03' E 003°11'1514.7
2015-May-02 17:33N 36°59' E 002°53'1515.2
2015-May-02 16:33N 36°56' E 002°34'1515.3
2015-May-02 15:33N 36°54' E 002°15'4615.3
2015-May-02 12:31N 36°47' E 001°18'1515.4
2015-May-02 11:33N 36°45' E 000°60'1514.8
2015-May-02 10:33N 36°43' E 000°41'1615.1
2015-May-02 09:28N 36°40' E 000°21'1414.8
2015-May-02 08:32N 36°38' E 000°04'1514.7
2015-May-02 07:33N 36°36' W 000°14'1414.3
2015-May-02 06:34N 36°34' W 000°31'1413.9
2015-May-02 05:33N 36°32' W 000°48'1714.0
2015-May-02 04:20N 36°29' W 001°09'1114.2
2015-May-02 03:33N 36°28' W 001°23'1414.3
2015-May-02 02:33N 36°25' W 001°40'1514.5
2015-May-02 01:33N 36°23' W 001°58'1414.1
2015-May-02 00:33N 36°22' W 002°16'1414.5
2015-May-01 23:33N 36°20' W 002°34'1514.6
2015-May-01 22:34N 36°18' W 002°52'1414.2
2015-May-01 21:33N 36°16' W 003°09'1414.5
2015-May-01 20:33N 36°14' W 003°27'1514.6
2015-May-01 19:33N 36°11' W 003°45'1614.5
2015-May-01 18:26N 36°09' W 004°05'6015.5
2015-May-01 14:33N 35°59' W 005°18'5315.3
2015-May-01 11:04N 35°55' W 006°24'814.6
2015-May-01 10:31N 35°57' W 006°33'1814.3
2015-May-01 09:15N 36°02' W 006°55'1014.1
2015-May-01 08:33N 36°04' W 007°07'1414.1
2015-May-01 07:33N 36°07' W 007°24'1414.1
2015-May-01 06:34N 36°11' W 007°40'1414.3
2015-May-01 05:34N 36°14' W 007°58'1414.4
2015-May-01 04:33N 36°18' W 008°15'1414.4
2015-May-01 03:33N 36°21' W 008°32'1414.0
2015-May-01 02:33N 36°24' W 008°49'1413.8
2015-May-01 01:33N 36°27' W 009°06'1413.8
2015-May-01 00:33N 36°32' W 009°22'1414.0
2015-Apr-30 23:33N 36°42' W 009°35'1413.8
2015-Apr-30 22:34N 36°54' W 009°41'1515.1
2015-Apr-30 21:33N 37°09' W 009°45'1514.8
2015-Apr-30 20:33N 37°23' W 009°50'1514.6
2015-Apr-30 19:33N 37°38' W 009°54'1514.7
2015-Apr-30 18:33N 37°52' W 009°58'1514.7
2015-Apr-30 17:33N 38°07' W 010°02'1514.6
2015-Apr-30 16:33N 38°21' W 010°06'1514.6
2015-Apr-30 15:34N 38°35' W 010°10'1514.5
2015-Apr-30 14:33N 38°49' W 010°12'1414.4
2015-Apr-30 13:33N 39°04' W 010°12'1414.2
2015-Apr-30 12:33N 39°18' W 010°12'1414.4
2015-Apr-30 11:33N 39°32' W 010°12'1514.4
2015-Apr-30 10:33N 39°47' W 010°12'1614.3
2015-Apr-30 09:24N 40°03' W 010°11'1214.2
2015-Apr-30 08:31N 40°16' W 010°11'1514.0
2015-Apr-30 07:26N 40°31' W 010°12'63413.2
2015-Apr-28 07:33N 49°53' W 003°15'1815.0
2015-Apr-28 06:21N 50°00' W 002°49'8113.5
2015-Apr-28 00:23N 50°22' W 000°48'2915.2
2015-Apr-27 22:28N 50°30' W 000°04'1615.3
2015-Apr-27 21:24N 50°35' E 000°20'1315.0
2015-Apr-27 20:34N 50°40' E 000°39'1514.9
2015-Apr-27 19:34N 50°48' E 000°58'1514.7
2015-Apr-27 18:33N 50°58' E 001°16'1515.2
2015-Apr-27 17:34N 51°08' E 001°34'1616.0
2015-Apr-27 16:34N 51°19' E 001°52'1212.5
2015-Apr-27 15:34N 51°22' E 002°12'1616.0
2015-Apr-27 14:33N 51°23' E 002°37'1413.9
2015-Apr-27 13:34N 51°24' E 002°60'1616.5
2015-Apr-27 12:34N 51°25' E 003°26'1111.4
2015-Apr-27 11:34N 51°23' E 003°44'1211.6
2015-Apr-27 10:34N 51°25' E 004°02'1010.1
2015-Apr-27 09:33N 51°21' E 004°17'0 0.1
2015-Apr-27 08:34N 51°21' E 004°17'1 0.9
2015-Apr-27 07:30N 51°22' E 004°17'0 0.0
2015-Apr-27 06:33N 51°22' E 004°17'0 0.0
2015-Apr-27 05:33N 51°22' E 004°17'0 0.0
2015-Apr-27 04:27N 51°22' E 004°17'0 0.0
2015-Apr-27 03:33N 51°22' E 004°17'0 0.0
2015-Apr-27 02:27N 51°22' E 004°17'0 0.0
2015-Apr-27 01:33N 51°22' E 004°17'0 0.0
2015-Apr-27 00:24N 51°22' E 004°17'0 0.0
2015-Apr-26 23:33N 51°22' E 004°17'0 0.0
2015-Apr-26 22:32N 51°22' E 004°17'0 0.0
2015-Apr-26 21:33N 51°22' E 004°17'0 0.0
2015-Apr-26 20:24N 51°22' E 004°17'0 0.0
2015-Apr-26 19:30N 51°22' E 004°17'0 0.0
2015-Apr-26 18:30N 51°22' E 004°17'0 0.0
2015-Apr-26 17:33N 51°22' E 004°17'0 0.0
2015-Apr-26 16:33N 51°22' E 004°17'0 0.0
2015-Apr-26 15:33N 51°22' E 004°17'0 0.0
2015-Apr-26 14:09N 51°22' E 004°17'0 0.0
2015-Apr-26 13:33N 51°22' E 004°17'0 0.0
2015-Apr-26 12:27N 51°22' E 004°17'0 0.0
2015-Apr-26 11:09N 51°22' E 004°17'0 0.0
2015-Apr-26 10:33N 51°22' E 004°17'0 0.0
2015-Apr-26 09:30N 51°22' E 004°17'0 0.0
2015-Apr-26 08:33N 51°22' E 004°17'0 0.0
2015-Apr-26 07:33N 51°22' E 004°17'0 0.0
2015-Apr-26 06:33N 51°22' E 004°17'0 0.0
2015-Apr-26 05:28N 51°22' E 004°17'0 0.0
2015-Apr-26 04:32N 51°22' E 004°17'0 0.0
2015-Apr-26 03:30N 51°22' E 004°17'0 0.0
2015-Apr-26 02:30N 51°22' E 004°17'0 0.1
2015-Apr-26 01:27N 51°22' E 004°17'1 1.1
2015-Apr-26 00:33N 51°21' E 004°17'0 0.1
2015-Apr-25 23:34N 51°21' E 004°17'5 4.9
2015-Apr-25 22:33N 51°23' E 004°10'8 7.6
2015-Apr-25 21:34N 51°26' E 003°59'10 9.7
2015-Apr-25 20:34N 51°22' E 003°45'8 8.2
2015-Apr-25 19:33N 51°25' E 003°33'10 9.7
2015-Apr-25 18:34N 51°24' E 003°17'1211.8
2015-Apr-25 17:34N 51°23' E 002°58'1110.6
2015-Apr-25 16:34N 51°24' E 002°42'2 2.2
2015-Apr-25 15:32N 51°26' E 002°40'0 0.2
2015-Apr-25 14:32N 51°26' E 002°40'0 0.1
2015-Apr-25 13:32N 51°26' E 002°40'0 0.0
2015-Apr-25 12:32N 51°26' E 002°40'0 0.0
2015-Apr-25 11:32N 51°26' E 002°40'0 0.2
2015-Apr-25 10:33N 51°26' E 002°40'0 0.0
2015-Apr-25 09:33N 51°26' E 002°40'0 0.0
2015-Apr-25 08:32N 51°26' E 002°40'0 0.0
2015-Apr-25 07:32N 51°26' E 002°40'0 0.0
2015-Apr-25 06:32N 51°26' E 002°40'0 0.0
2015-Apr-25 05:33N 51°26' E 002°40'0 0.0
2015-Apr-25 04:33N 51°26' E 002°40'0 0.0
2015-Apr-25 03:32N 51°26' E 002°40'0 0.1
2015-Apr-25 02:32N 51°26' E 002°40'0 0.1
2015-Apr-25 01:33N 51°26' E 002°40'0 0.0
2015-Apr-25 00:32N 51°26' E 002°40'0 0.1
2015-Apr-24 23:32N 51°26' E 002°40'0 0.2
2015-Apr-24 22:31N 51°26' E 002°40'0 0.1
2015-Apr-24 21:32N 51°26' E 002°40'0 0.0
2015-Apr-24 20:32N 51°26' E 002°40'0 0.0
2015-Apr-24 19:33N 51°26' E 002°40'0 0.0
2015-Apr-24 18:32N 51°26' E 002°40'0 0.0
2015-Apr-24 17:32N 51°26' E 002°40'0 0.0
2015-Apr-24 16:32N 51°26' E 002°40'0 0.0
2015-Apr-24 15:32N 51°26' E 002°40'0 0.1
2015-Apr-24 14:32N 51°26' E 002°40'0 0.2
2015-Apr-24 13:32N 51°26' E 002°40'0 0.0
2015-Apr-24 12:33N 51°26' E 002°40'0 0.0
2015-Apr-24 11:32N 51°26' E 002°40'0 0.0
2015-Apr-24 10:32N 51°26' E 002°40'0 0.0
2015-Apr-24 09:33N 51°26' E 002°40'0 0.1
2015-Apr-24 08:29N 51°26' E 002°40'0 0.0
2015-Apr-24 07:33N 51°26' E 002°40'0 0.0
2015-Apr-24 06:32N 51°26' E 002°40'0 0.0
2015-Apr-24 05:32N 51°26' E 002°40'  
Track history (hours):
 
Tides and Currents Weather Stations Pressure Air Temp Water Temp Dewpoint Dewpoint Depression Visibility Wind Speed Wind Dir Waves Ship Positions

Gas Snapper

Last reported at 2015-May-04 04:33 UTC. Time now 2015-May-04 06:01 UTC.
Position N 36°40' E 013°14'.

Length 174 m; draft 6.6 m.

Type: Ship (hazmat cat D). MMSI: 538003911.

Date/timePositionNaut miles runAvg speedWind from/ knotsBaromVisibWave heightAir tempDewpointWater temp
2015-May-04 04:33N 36°40' E 013°14'1414.1
2015-May-04 03:34N 36°45' E 012°58'1414.1
2015-May-04 02:33N 36°50' E 012°41'1414.1
2015-May-04 01:33N 36°54' E 012°25'1414.4
2015-May-04 00:33N 36°59' E 012°08'1514.6
2015-May-03 23:33N 37°05' E 011°51'1514.7
2015-May-03 22:33N 37°12' E 011°35'1514.5
2015-May-03 21:33N 37°19' E 011°19'1514.3
2015-May-03 20:31N 37°25' E 011°02'1414.3
2015-May-03 19:33N 37°29' E 010°45'1414.4
2015-May-03 18:33N 37°33' E 010°28'1414.5
2015-May-03 17:33N 37°34' E 010°09'1514.9
2015-May-03 16:33N 37°35' E 009°51'4514.8
2015-May-03 13:32N 37°38' E 008°54'19214.4
2015-May-03 00:13N 37°14' E 004°54'5414.6
2015-May-02 20:33N 37°05' E 003°48'1514.9
2015-May-02 19:33N 37°04' E 003°30'1515.1
2015-May-02 18:34N 37°03' E 003°11'1514.7
2015-May-02 17:33N 36°59' E 002°53'1515.2
2015-May-02 16:33N 36°56' E 002°34'1515.3
2015-May-02 15:33N 36°54' E 002°15'4615.3
2015-May-02 12:31N 36°47' E 001°18'1515.4
2015-May-02 11:33N 36°45' E 000°60'1514.8
2015-May-02 10:33N 36°43' E 000°41'1615.1
2015-May-02 09:28N 36°40' E 000°21'1414.8
2015-May-02 08:32N 36°38' E 000°04'1514.7
2015-May-02 07:33N 36°36' W 000°14'1414.3
2015-May-02 06:34N 36°34' W 000°31'1413.9
2015-May-02 05:33N 36°32' W 000°48'1714.0
2015-May-02 04:20N 36°29' W 001°09'1114.2
2015-May-02 03:33N 36°28' W 001°23'1414.3
2015-May-02 02:33N 36°25' W 001°40'1514.5
2015-May-02 01:33N 36°23' W 001°58'1414.1
2015-May-02 00:33N 36°22' W 002°16'1414.5
2015-May-01 23:33N 36°20' W 002°34'1514.6
2015-May-01 22:34N 36°18' W 002°52'1414.2
2015-May-01 21:33N 36°16' W 003°09'1414.5
2015-May-01 20:33N 36°14' W 003°27'1514.6
2015-May-01 19:33N 36°11' W 003°45'1614.5
2015-May-01 18:26N 36°09' W 004°05'6015.5
2015-May-01 14:33N 35°59' W 005°18'5315.3
2015-May-01 11:04N 35°55' W 006°24'814.6
2015-May-01 10:31N 35°57' W 006°33'1814.3
2015-May-01 09:15N 36°02' W 006°55'1014.1
2015-May-01 08:33N 36°04' W 007°07'1414.1
2015-May-01 07:33N 36°07' W 007°24'1414.1
2015-May-01 06:34N 36°11' W 007°40'1414.3
2015-May-01 05:34N 36°14' W 007°58'1414.4
2015-May-01 04:33N 36°18' W 008°15'1414.4
2015-May-01 03:33N 36°21' W 008°32'1414.0
2015-May-01 02:33N 36°24' W 008°49'1413.8
2015-May-01 01:33N 36°27' W 009°06'1413.8
2015-May-01 00:33N 36°32' W 009°22'1414.0
2015-Apr-30 23:33N 36°42' W 009°35'1413.8
2015-Apr-30 22:34N 36°54' W 009°41'1515.1
2015-Apr-30 21:33N 37°09' W 009°45'1514.8
2015-Apr-30 20:33N 37°23' W 009°50'1514.6
2015-Apr-30 19:33N 37°38' W 009°54'1514.7
2015-Apr-30 18:33N 37°52' W 009°58'1514.7
2015-Apr-30 17:33N 38°07' W 010°02'1514.6
2015-Apr-30 16:33N 38°21' W 010°06'1514.6
2015-Apr-30 15:34N 38°35' W 010°10'1514.5
2015-Apr-30 14:33N 38°49' W 010°12'1414.4
2015-Apr-30 13:33N 39°04' W 010°12'1414.2
2015-Apr-30 12:33N 39°18' W 010°12'1414.4
2015-Apr-30 11:33N 39°32' W 010°12'1514.4
2015-Apr-30 10:33N 39°47' W 010°12'1614.3
2015-Apr-30 09:24N 40°03' W 010°11'1214.2
2015-Apr-30 08:31N 40°16' W 010°11'1514.0
2015-Apr-30 07:26N 40°31' W 010°12'63413.2
2015-Apr-28 07:33N 49°53' W 003°15'1815.0
2015-Apr-28 06:21N 50°00' W 002°49'8113.5
2015-Apr-28 00:23N 50°22' W 000°48'2915.2
2015-Apr-27 22:28N 50°30' W 000°04'1615.3
2015-Apr-27 21:24N 50°35' E 000°20'1315.0
2015-Apr-27 20:34N 50°40' E 000°39'1514.9
2015-Apr-27 19:34N 50°48' E 000°58'1514.7
2015-Apr-27 18:33N 50°58' E 001°16'1515.2
2015-Apr-27 17:34N 51°08' E 001°34'1616.0
2015-Apr-27 16:34N 51°19' E 001°52'1212.5
2015-Apr-27 15:34N 51°22' E 002°12'1616.0
2015-Apr-27 14:33N 51°23' E 002°37'1413.9
2015-Apr-27 13:34N 51°24' E 002°60'1616.5
2015-Apr-27 12:34N 51°25' E 003°26'1111.4
2015-Apr-27 11:34N 51°23' E 003°44'1211.6
2015-Apr-27 10:34N 51°25' E 004°02'1010.1
2015-Apr-27 09:33N 51°21' E 004°17'0 0.1
2015-Apr-27 08:34N 51°21' E 004°17'1 0.9
2015-Apr-27 07:30N 51°22' E 004°17'0 0.0
2015-Apr-27 06:33N 51°22' E 004°17'0 0.0
2015-Apr-27 05:33N 51°22' E 004°17'0 0.0
2015-Apr-27 04:27N 51°22' E 004°17'0 0.0
2015-Apr-27 03:33N 51°22' E 004°17'0 0.0
2015-Apr-27 02:27N 51°22' E 004°17'0 0.0
2015-Apr-27 01:33N 51°22' E 004°17'0 0.0
2015-Apr-27 00:24N 51°22' E 004°17'0 0.0
2015-Apr-26 23:33N 51°22' E 004°17'0 0.0
2015-Apr-26 22:32N 51°22' E 004°17'0 0.0
2015-Apr-26 21:33N 51°22' E 004°17'0 0.0
2015-Apr-26 20:24N 51°22' E 004°17'0 0.0
2015-Apr-26 19:30N 51°22' E 004°17'0 0.0
2015-Apr-26 18:30N 51°22' E 004°17'0 0.0
2015-Apr-26 17:33N 51°22' E 004°17'0 0.0
2015-Apr-26 16:33N 51°22' E 004°17'0 0.0
2015-Apr-26 15:33N 51°22' E 004°17'0 0.0
2015-Apr-26 14:09N 51°22' E 004°17'0 0.0
2015-Apr-26 13:33N 51°22' E 004°17'0 0.0
2015-Apr-26 12:27N 51°22' E 004°17'0 0.0
2015-Apr-26 11:09N 51°22' E 004°17'0 0.0
2015-Apr-26 10:33N 51°22' E 004°17'0 0.0
2015-Apr-26 09:30N 51°22' E 004°17'0 0.0
2015-Apr-26 08:33N 51°22' E 004°17'0 0.0
2015-Apr-26 07:33N 51°22' E 004°17'0 0.0
2015-Apr-26 06:33N 51°22' E 004°17'0 0.0
2015-Apr-26 05:28N 51°22' E 004°17'0 0.0
2015-Apr-26 04:32N 51°22' E 004°17'0 0.0
2015-Apr-26 03:30N 51°22' E 004°17'0 0.0
2015-Apr-26 02:30N 51°22' E 004°17'0 0.1
2015-Apr-26 01:27N 51°22' E 004°17'1 1.1
2015-Apr-26 00:33N 51°21' E 004°17'0 0.1
2015-Apr-25 23:34N 51°21' E 004°17'5 4.9
2015-Apr-25 22:33N 51°23' E 004°10'8 7.6
2015-Apr-25 21:34N 51°26' E 003°59'10 9.7
2015-Apr-25 20:34N 51°22' E 003°45'8 8.2
2015-Apr-25 19:33N 51°25' E 003°33'10 9.7
2015-Apr-25 18:34N 51°24' E 003°17'1211.8
2015-Apr-25 17:34N 51°23' E 002°58'1110.6
2015-Apr-25 16:34N 51°24' E 002°42'2 2.2
2015-Apr-25 15:32N 51°26' E 002°40'0 0.2
2015-Apr-25 14:32N 51°26' E 002°40'0 0.1
2015-Apr-25 13:32N 51°26' E 002°40'0 0.0
2015-Apr-25 12:32N 51°26' E 002°40'0 0.0
2015-Apr-25 11:32N 51°26' E 002°40'0 0.2
2015-Apr-25 10:33N 51°26' E 002°40'0 0.0
2015-Apr-25 09:33N 51°26' E 002°40'0 0.0
2015-Apr-25 08:32N 51°26' E 002°40'0 0.0
2015-Apr-25 07:32N 51°26' E 002°40'0 0.0
2015-Apr-25 06:32N 51°26' E 002°40'0 0.0
2015-Apr-25 05:33N 51°26' E 002°40'0 0.0
2015-Apr-25 04:33N 51°26' E 002°40'0 0.0
2015-Apr-25 03:32N 51°26' E 002°40'0 0.1
2015-Apr-25 02:32N 51°26' E 002°40'0 0.1
2015-Apr-25 01:33N 51°26' E 002°40'0 0.0
2015-Apr-25 00:32N 51°26' E 002°40'0 0.1
2015-Apr-24 23:32N 51°26' E 002°40'0 0.2
2015-Apr-24 22:31N 51°26' E 002°40'0 0.1
2015-Apr-24 21:32N 51°26' E 002°40'0 0.0
2015-Apr-24 20:32N 51°26' E 002°40'0 0.0
2015-Apr-24 19:33N 51°26' E 002°40'0 0.0
2015-Apr-24 18:32N 51°26' E 002°40'0 0.0
2015-Apr-24 17:32N 51°26' E 002°40'0 0.0
2015-Apr-24 16:32N 51°26' E 002°40'0 0.0
2015-Apr-24 15:32N 51°26' E 002°40'0 0.1
2015-Apr-24 14:32N 51°26' E 002°40'0 0.2
2015-Apr-24 13:32N 51°26' E 002°40'0 0.0
2015-Apr-24 12:33N 51°26' E 002°40'0 0.0
2015-Apr-24 11:32N 51°26' E 002°40'0 0.0
2015-Apr-24 10:32N 51°26' E 002°40'0 0.0
2015-Apr-24 09:33N 51°26' E 002°40'0 0.1
2015-Apr-24 08:29N 51°26' E 002°40'0 0.0
2015-Apr-24 07:33N 51°26' E 002°40'0 0.0
2015-Apr-24 06:32N 51°26' E 002°40'0 0.0
2015-Apr-24 05:32N 51°26' E 002°40'  

Dump ship's entire track history